createdAt,value
2019-05-20T00:02:24.355Z,13.60
2019-05-20T00:04:45.379Z,13.60
2019-05-20T00:07:14.227Z,13.60
2019-05-20T00:09:42.890Z,13.50
2019-05-20T00:12:11.469Z,13.50
2019-05-20T00:14:40.172Z,13.40
2019-05-20T00:17:10.366Z,13.40
2019-05-20T00:19:39.075Z,13.30
2019-05-20T00:22:07.734Z,13.30
2019-05-20T00:24:37.906Z,13.30
2019-05-20T00:27:36.773Z,13.30
2019-05-20T00:38:14.772Z,13.40
2019-05-20T00:40:43.793Z,13.40
2019-05-20T00:46:03.691Z,13.40
2019-05-20T00:48:32.964Z,13.40
2019-05-20T00:51:01.596Z,13.40
2019-05-20T00:53:30.542Z,13.30
2019-05-20T00:56:37.848Z,13.40
2019-05-20T00:59:11.130Z,13.30
2019-05-20T01:01:40.058Z,13.30
2019-05-20T01:04:08.900Z,13.30
2019-05-20T01:06:37.757Z,13.30
2019-05-20T01:09:15.173Z,13.30
2019-05-20T01:11:43.949Z,13.30
2019-05-20T01:14:12.767Z,13.30
2019-05-20T01:16:41.643Z,13.20
2019-05-20T01:19:10.439Z,13.20
2019-05-20T01:24:09.574Z,13.20
2019-05-20T01:26:42.845Z,13.20
2019-05-20T01:29:09.159Z,13.20
2019-05-20T01:31:42.280Z,13.20
2019-05-20T01:34:11.110Z,13.20
2019-05-20T01:36:39.927Z,13.20
2019-05-20T01:39:11.562Z,13.10
2019-05-20T01:41:40.108Z,13.00
2019-05-20T01:44:08.937Z,13.00
2019-05-20T01:46:37.758Z,13.10
2019-05-20T01:49:06.560Z,13.00
2019-05-20T01:52:09.408Z,13.00
2019-05-20T01:54:39.563Z,13.00
2019-05-20T01:57:11.116Z,13.10
2019-05-20T01:59:43.049Z,13.10
2019-05-20T02:02:12.263Z,13.20
2019-05-20T02:04:47.176Z,13.20
2019-05-20T02:07:18.043Z,13.30
2019-05-20T02:09:47.000Z,13.30
2019-05-20T02:12:15.923Z,13.40
2019-05-20T02:14:49.237Z,13.40
2019-05-20T02:17:24.037Z,13.50
2019-05-20T02:22:39.335Z,13.50
2019-05-20T02:25:18.809Z,13.60
2019-05-20T02:27:47.917Z,13.60
2019-05-20T02:30:20.005Z,13.60
2019-05-20T02:32:48.826Z,13.60
2019-05-20T02:35:29.699Z,13.70
2019-05-20T02:38:12.478Z,13.80
2019-05-20T02:40:41.482Z,13.80
2019-05-20T02:43:10.495Z,13.90
2019-05-20T02:45:39.454Z,13.90
2019-05-20T02:48:08.446Z,14.00
2019-05-20T02:53:23.259Z,14.00
2019-05-20T02:55:52.216Z,14.10
2019-05-20T02:58:21.040Z,14.10
2019-05-20T03:00:49.918Z,14.10
2019-05-20T03:03:18.574Z,14.10
2019-05-20T03:05:47.160Z,14.00
2019-05-20T03:08:16.183Z,14.00
2019-05-20T03:10:45.143Z,14.00
2019-05-20T03:13:14.034Z,14.00
2019-05-20T03:16:33.834Z,14.00
2019-05-20T03:23:49.904Z,13.90
2019-05-20T03:26:56.185Z,13.90
2019-05-20T03:29:26.458Z,13.90
2019-05-20T03:32:26.546Z,13.90
2019-05-20T03:35:19.428Z,14.00
2019-05-20T03:37:58.381Z,14.00
2019-05-20T03:40:27.069Z,14.00
2019-05-20T03:43:03.238Z,14.10
2019-05-20T03:45:31.882Z,14.10
2019-05-20T03:48:00.572Z,14.10
2019-05-20T03:50:29.084Z,14.20
2019-05-20T03:52:57.735Z,14.20
2019-05-20T03:55:33.733Z,14.10
2019-05-20T03:58:02.374Z,14.10
2019-05-20T04:00:42.260Z,14.20
2019-05-20T04:03:11.208Z,14.30
2019-05-20T04:05:40.501Z,14.20
2019-05-20T04:08:09.308Z,14.20
2019-05-20T04:10:38.435Z,14.20
2019-05-20T04:13:07.174Z,14.10
2019-05-20T04:15:35.969Z,14.20
2019-05-20T04:18:04.750Z,14.20
2019-05-20T04:20:33.621Z,14.30
2019-05-20T04:23:10.326Z,14.30
2019-05-20T04:25:42.486Z,14.30
2019-05-20T04:28:11.376Z,14.30
2019-05-20T04:30:40.368Z,14.30
2019-05-20T04:33:08.892Z,14.30
2019-05-20T04:35:37.386Z,14.30
2019-05-20T04:38:05.944Z,14.30
2019-05-20T04:40:34.486Z,14.30
2019-05-20T04:49:45.431Z,14.30
2019-05-20T04:52:13.891Z,14.30
2019-05-20T04:54:45.852Z,14.30
2019-05-20T04:57:14.541Z,14.30
2019-05-20T04:59:43.730Z,14.40
2019-05-20T05:12:19.078Z,14.40
2019-05-20T05:14:47.632Z,14.40
2019-05-20T05:17:16.507Z,14.50
2019-05-20T05:19:45.125Z,14.50
2019-05-20T05:22:15.426Z,14.50
2019-05-20T05:24:43.951Z,14.50
2019-05-20T05:27:12.519Z,14.50
2019-05-20T05:29:42.538Z,14.50
2019-05-20T05:32:11.137Z,14.60
2019-05-20T05:34:39.913Z,14.60
2019-05-20T05:37:08.531Z,14.60
2019-05-20T05:39:37.210Z,14.60
2019-05-20T05:42:05.752Z,14.50
2019-05-20T05:44:35.933Z,14.60
2019-05-20T05:47:04.671Z,14.60
2019-05-20T05:49:33.508Z,14.50
2019-05-20T05:52:02.397Z,14.40
2019-05-20T05:54:31.184Z,14.50
2019-05-20T05:56:59.868Z,14.50
2019-05-20T05:59:29.891Z,14.50
2019-05-20T06:02:08.935Z,14.50
2019-05-20T06:05:05.142Z,14.60
2019-05-20T06:07:36.556Z,14.60
2019-05-20T06:10:39.698Z,14.60
2019-05-20T06:13:08.574Z,14.70
2019-05-20T06:15:44.862Z,14.70
2019-05-20T06:18:19.768Z,14.70
2019-05-20T06:20:55.931Z,14.80
2019-05-20T06:23:27.763Z,14.80
2019-05-20T06:35:31.448Z,14.70
2019-05-20T06:41:27.324Z,14.80
2019-05-20T06:54:18.433Z,14.70
2019-05-20T06:56:50.439Z,14.80
2019-05-20T07:02:29.986Z,14.70
2019-05-20T07:05:00.627Z,14.70
2019-05-20T07:07:30.837Z,14.60
2019-05-20T07:10:07.197Z,14.70
2019-05-20T07:12:45.410Z,14.70
2019-05-20T07:15:14.097Z,14.70
2019-05-20T07:21:16.183Z,14.70
2019-05-20T07:27:45.406Z,14.80
2019-05-20T07:30:15.840Z,14.80
2019-05-20T07:32:54.590Z,14.80
2019-05-20T07:35:30.994Z,14.80
2019-05-20T07:38:18.175Z,14.80
2019-05-20T07:40:47.129Z,14.80
2019-05-20T07:43:39.585Z,14.80
2019-05-20T07:46:09.632Z,14.80
2019-05-20T07:51:26.971Z,14.70
2019-05-20T07:54:37.797Z,14.70
2019-05-20T07:57:15.188Z,14.80
2019-05-20T08:02:23.742Z,14.90
2019-05-20T08:05:00.349Z,15.00
2019-05-20T08:08:10.343Z,14.90
2019-05-20T08:10:38.856Z,14.90
2019-05-20T08:13:07.397Z,14.80
2019-05-20T08:15:38.958Z,14.80
2019-05-20T08:18:09.317Z,14.90
2019-05-20T08:20:37.965Z,14.80
2019-05-20T08:23:09.723Z,14.80
2019-05-20T08:25:38.827Z,14.70
2019-05-20T08:28:07.908Z,14.70
2019-05-20T08:30:38.057Z,14.70
2019-05-20T08:33:08.970Z,14.70
2019-05-20T08:35:38.360Z,14.70
2019-05-20T08:38:07.467Z,14.70
2019-05-20T08:40:36.187Z,14.80
2019-05-20T08:43:04.872Z,14.80
2019-05-20T08:45:33.835Z,14.70
2019-05-20T08:48:02.803Z,14.70
2019-05-20T08:50:33.641Z,14.70
2019-05-20T08:53:05.111Z,14.60
2019-05-20T08:58:26.234Z,14.70
2019-05-20T09:00:57.788Z,14.70
2019-05-20T09:03:25.333Z,14.80
2019-05-20T09:05:54.094Z,14.80
2019-05-20T09:08:22.918Z,14.80
2019-05-20T09:11:21.553Z,14.80
2019-05-20T09:13:50.702Z,14.80
2019-05-20T09:16:23.817Z,14.70
2019-05-20T09:18:52.753Z,14.70
2019-05-20T09:21:23.208Z,14.70
2019-05-20T09:23:52.299Z,14.70
2019-05-20T09:26:21.100Z,14.70
2019-05-20T09:28:49.876Z,14.80
2019-05-20T09:31:20.114Z,14.80
2019-05-20T09:33:49.961Z,14.80
2019-05-20T09:36:18.783Z,14.90
2019-05-20T09:38:47.543Z,15.00
2019-05-20T09:41:19.445Z,15.00
2019-05-20T09:43:49.908Z,15.00
2019-05-20T09:46:18.523Z,15.00
2019-05-20T09:48:49.149Z,15.00
2019-05-20T09:51:20.550Z,15.00
2019-05-20T09:53:53.728Z,15.10
2019-05-20T09:56:22.408Z,15.10
2019-05-20T09:58:50.923Z,15.10
2019-05-20T10:01:19.909Z,15.20
2019-05-20T10:03:48.464Z,15.20
2019-05-20T10:06:19.709Z,15.30
2019-05-20T10:08:48.519Z,15.30
2019-05-20T10:11:17.077Z,15.20
2019-05-20T10:13:45.849Z,15.20
2019-05-20T10:16:14.324Z,15.10
2019-05-20T10:18:43.135Z,15.10
2019-05-20T10:21:12.127Z,15.10
2019-05-20T10:23:40.913Z,15.00
2019-05-20T10:26:09.675Z,15.00
2019-05-20T10:28:46.809Z,15.00
2019-05-20T10:31:12.213Z,15.10
2019-05-20T10:33:41.797Z,15.10
2019-05-20T10:36:10.757Z,15.10
2019-05-20T10:38:56.784Z,15.10
2019-05-20T10:41:12.455Z,15.20
2019-05-20T10:43:45.755Z,15.30
2019-05-20T10:46:26.016Z,15.40
2019-05-20T10:48:55.289Z,15.50
2019-05-20T10:51:26.862Z,15.50
2019-05-20T10:53:55.653Z,15.40
2019-05-20T10:56:24.283Z,15.40
2019-05-20T10:58:59.233Z,15.30
2019-05-20T11:01:28.106Z,15.30
2019-05-20T11:03:56.731Z,15.20
2019-05-20T11:06:27.062Z,15.20
2019-05-20T11:09:14.051Z,15.30
2019-05-20T11:11:39.506Z,15.50
2019-05-20T11:14:18.745Z,15.60
2019-05-20T11:18:25.616Z,15.60
2019-05-20T11:19:20.659Z,15.60
2019-05-20T11:21:49.713Z,15.60
2019-05-20T11:24:21.095Z,15.40
2019-05-20T11:29:39.573Z,15.40
2019-05-20T11:32:13.248Z,15.40
2019-05-20T11:34:40.963Z,15.40
2019-05-20T11:37:10.593Z,15.50
2019-05-20T11:39:39.584Z,15.40
2019-05-20T11:42:08.312Z,15.40
2019-05-20T11:44:39.239Z,15.40
2019-05-20T11:47:08.185Z,15.40
2019-05-20T11:49:37.171Z,15.40
2019-05-20T11:52:05.951Z,15.40
2019-05-20T11:54:34.646Z,15.40
2019-05-20T11:57:14.450Z,15.40
2019-05-20T11:59:43.172Z,15.30
2019-05-20T12:04:48.427Z,15.40
2019-05-20T12:07:20.391Z,15.40
2019-05-20T12:09:50.326Z,15.50
2019-05-20T12:15:23.078Z,15.50
2019-05-20T12:17:53.429Z,15.50
2019-05-20T12:20:24.417Z,15.50
2019-05-20T12:23:46.446Z,15.40
2019-05-20T12:32:03.455Z,15.50
2019-05-20T12:34:54.974Z,15.60
2019-05-20T12:37:28.796Z,15.60
2019-05-20T12:40:59.013Z,15.60
2019-05-20T12:43:45.692Z,15.70
2019-05-20T12:49:44.104Z,15.60
2019-05-20T12:52:21.843Z,15.60
2019-05-20T12:55:06.883Z,15.60
2019-05-20T12:57:37.534Z,15.60
2019-05-20T13:00:17.331Z,15.60
2019-05-20T13:05:43.108Z,15.60
2019-05-20T13:08:18.544Z,15.70
2019-05-20T13:10:59.702Z,15.70
2019-05-20T13:13:28.244Z,15.70
2019-05-20T13:15:59.630Z,15.70
2019-05-20T13:18:35.433Z,15.70
2019-05-20T13:21:05.710Z,15.60
2019-05-20T13:23:34.234Z,15.60
2019-05-20T13:26:02.752Z,15.60
2019-05-20T13:28:31.294Z,15.60
2019-05-20T13:30:59.926Z,15.70
2019-05-20T13:33:38.982Z,15.80
2019-05-20T13:36:07.656Z,15.90
2019-05-20T13:38:36.280Z,16.00
2019-05-20T13:41:05.413Z,16.20
2019-05-20T13:43:33.996Z,16.30
2019-05-20T13:46:02.475Z,16.60
2019-05-20T13:48:30.999Z,16.70
2019-05-20T13:50:59.748Z,16.70
2019-05-20T13:53:28.348Z,16.70
2019-05-20T13:55:56.883Z,16.60
2019-05-20T13:58:40.530Z,16.50
2019-05-20T14:01:14.622Z,16.30
2019-05-20T14:12:27.554Z,16.20
2019-05-20T14:13:13.427Z,16.30
2019-05-20T14:15:46.421Z,16.40
2019-05-20T14:18:23.189Z,16.40
2019-05-20T14:24:10.340Z,16.40
2019-05-20T14:26:47.917Z,16.50
2019-05-20T14:29:17.085Z,16.50
2019-05-20T14:31:51.897Z,16.40
2019-05-20T14:34:22.449Z,16.40
2019-05-20T14:36:53.003Z,16.50
2019-05-20T14:39:47.878Z,16.40
2019-05-20T14:42:16.811Z,16.30
2019-05-20T14:44:45.807Z,16.30
2019-05-20T14:47:14.546Z,16.30
2019-05-20T14:49:43.146Z,16.20
2019-05-20T14:52:16.341Z,16.20
2019-05-20T14:54:45.436Z,16.20
2019-05-20T14:57:16.124Z,16.20
2019-05-20T14:59:44.997Z,16.20
2019-05-20T15:02:13.475Z,16.20
2019-05-20T15:04:42.017Z,16.40
2019-05-20T15:07:10.549Z,16.40
2019-05-20T15:09:39.316Z,16.50
2019-05-20T15:12:08.996Z,16.50
2019-05-20T15:14:37.831Z,16.60
2019-05-20T15:17:06.417Z,16.50
2019-05-20T15:19:51.567Z,16.50
2019-05-20T15:22:21.625Z,16.40
2019-05-20T15:24:50.123Z,16.30
2019-05-20T15:27:18.654Z,16.20
2019-05-20T15:29:47.329Z,16.10
2019-05-20T15:32:17.859Z,16.10
2019-05-20T15:34:46.517Z,16.10
2019-05-20T15:37:18.097Z,16.10
2019-05-20T15:39:47.984Z,16.20
2019-05-20T15:42:16.714Z,16.20
2019-05-20T15:44:45.349Z,16.20
2019-05-20T15:47:18.733Z,16.20
2019-05-20T15:49:55.934Z,16.20
2019-05-20T15:52:25.975Z,16.20
2019-05-20T15:54:54.678Z,16.20
2019-05-20T15:57:30.316Z,16.30
2019-05-20T15:59:58.967Z,16.30
2019-05-20T16:02:27.839Z,16.20
2019-05-20T16:04:58.077Z,16.20
2019-05-20T16:07:26.731Z,16.20
2019-05-20T16:09:55.607Z,16.20
2019-05-20T16:15:12.067Z,16.30
2019-05-20T16:17:42.356Z,16.20
2019-05-20T16:21:06.513Z,16.10
2019-05-20T16:23:56.698Z,16.10
2019-05-20T16:30:24.517Z,16.00
2019-05-20T16:33:30.927Z,16.00
2019-05-20T16:35:59.392Z,16.00
2019-05-20T16:38:28.420Z,16.00
2019-05-20T16:41:00.253Z,16.00
2019-05-20T16:43:30.611Z,16.00
2019-05-20T16:46:06.074Z,15.90
2019-05-20T16:48:56.005Z,15.90
2019-05-20T16:54:34.099Z,15.90
2019-05-20T16:57:02.712Z,15.80
2019-05-20T17:05:24.268Z,15.80
2019-05-20T17:07:52.957Z,15.80
2019-05-20T17:10:27.593Z,15.90
2019-05-20T17:13:38.659Z,16.30
2019-05-20T17:16:11.048Z,16.50
2019-05-20T17:22:24.176Z,16.10
2019-05-20T17:28:21.961Z,15.90
2019-05-20T17:30:55.254Z,15.80
2019-05-20T17:39:52.038Z,15.60
2019-05-20T17:53:20.036Z,15.50
2019-05-20T17:56:01.969Z,15.50
2019-05-20T17:58:41.580Z,15.50
2019-05-20T18:02:02.998Z,15.40
2019-05-20T18:04:54.963Z,15.40
2019-05-20T18:17:33.344Z,15.40
2019-05-20T18:20:13.902Z,15.40
2019-05-20T18:26:03.584Z,15.60
2019-05-20T18:42:00.426Z,15.40
2019-05-20T18:51:17.552Z,15.30
2019-05-20T18:54:22.197Z,15.30
2019-05-20T19:03:21.642Z,15.20
2019-05-20T19:05:52.363Z,15.20
2019-05-20T19:08:21.237Z,15.20
2019-05-20T19:13:43.926Z,15.20
2019-05-20T19:16:20.787Z,15.20
2019-05-20T19:18:59.874Z,15.20
2019-05-20T19:21:29.658Z,15.20
2019-05-20T19:24:28.822Z,15.20
2019-05-20T19:31:27.498Z,15.20
2019-05-20T20:00:01.811Z,15.20
2019-05-20T20:05:01.047Z,15.10
2019-05-20T20:18:15.082Z,15.00
2019-05-20T20:27:31.407Z,14.90
2019-05-20T20:33:57.235Z,14.90
2019-05-20T20:49:39.242Z,14.80
2019-05-20T20:52:13.762Z,14.70
2019-05-20T20:55:05.420Z,14.70
2019-05-20T21:03:56.097Z,14.60
2019-05-20T21:13:44.470Z,14.70
2019-05-20T21:24:53.906Z,14.60
2019-05-20T21:30:17.900Z,14.60
2019-05-20T21:38:23.335Z,14.60
2019-05-20T21:40:55.058Z,14.50
2019-05-20T21:53:14.315Z,14.10
2019-05-20T21:55:48.759Z,14.00
2019-05-20T21:58:48.672Z,14.00
2019-05-20T22:01:17.717Z,14.00
2019-05-20T22:11:31.376Z,14.00
2019-05-20T22:27:49.299Z,13.90
2019-05-20T22:43:46.300Z,13.80
2019-05-20T22:46:47.707Z,13.80
2019-05-20T22:52:30.208Z,13.90
2019-05-20T22:55:00.665Z,13.80
2019-05-20T22:57:34.010Z,13.80
2019-05-20T23:02:50.243Z,13.80
2019-05-20T23:19:20.620Z,13.80
2019-05-20T23:21:59.772Z,13.90
2019-05-20T23:41:36.718Z,13.80
2019-05-20T23:47:25.549Z,13.70
2019-05-20T23:50:23.622Z,13.60
2019-05-20T23:52:52.186Z,13.60
2019-05-20T23:55:22.121Z,13.60
2019-05-20T23:57:57.819Z,13.60
